Lake Elizabeth, California
Current Conditions -  °F | °C
As of 9:48 AM on Thursday 30 Oct 2014 (Local Time) from KSDB Reporting Station
Clear Clear  
Wind Chill: 68°   Ceiling: Unl
Heat Index: 68°   Visibility: 10mi
Dew Point: 20°   Wind: 6mph
Humidity: 16%   Direction: 110°ESE
Pressure: 30.16"   Gusts: NA
Location:  34.6849°N, 118.558°W
Report Text: KSDB 301648Z AUTO 11005KT 10SM CLR 20/M07 A3016 RMK AO2 SLP163 T02001067
Loading
Personal Weather Stations






























Interactive Weather Map
Tropical Storm Tracking
New forecast layout! Learn more

10-Day Weather Forecast

Advertisements
Track Severe Weather on mobile